createdAt,value
2018-03-16T00:02:03.781Z,31.25
2018-03-16T00:04:31.317Z,30.90
2018-03-16T00:06:59.628Z,30.12
2018-03-16T00:09:27.109Z,29.37
2018-03-16T00:11:54.593Z,31.25
2018-03-16T00:14:22.102Z,32.97
2018-03-16T00:16:49.605Z,30.73
2018-03-16T00:19:17.099Z,32.65
2018-03-16T00:21:45.404Z,29.37
2018-03-16T00:24:12.934Z,31.37
2018-03-16T00:26:41.222Z,30.15
2018-03-16T00:29:08.736Z,32.03
2018-03-16T00:31:36.229Z,31.30
2018-03-16T00:34:04.504Z,29.37
2018-03-16T00:36:32.786Z,31.75
2018-03-16T00:39:01.094Z,30.98
2018-03-16T00:41:28.683Z,31.47
2018-03-16T00:43:56.182Z,29.60
2018-03-16T00:46:23.674Z,29.48
2018-03-16T00:48:51.187Z,30.08
2018-03-16T00:51:18.713Z,32.80
2018-03-16T00:53:46.233Z,33.50
2018-03-16T00:56:14.531Z,29.85
2018-03-16T00:58:42.069Z,30.10
2018-03-16T01:01:10.396Z,30.00
2018-03-16T01:03:37.926Z,29.48
2018-03-16T01:06:05.424Z,30.65
2018-03-16T01:08:32.957Z,30.90
2018-03-16T01:11:00.472Z,30.43
2018-03-16T01:13:28.756Z,32.58
2018-03-16T01:15:57.098Z,30.80
2018-03-16T01:18:24.687Z,29.27
2018-03-16T01:20:52.222Z,32.33
2018-03-16T01:23:20.506Z,32.30
2018-03-16T01:25:48.106Z,31.45
2018-03-16T01:28:17.108Z,28.80
2018-03-16T01:30:44.646Z,32.40
2018-03-16T01:33:12.158Z,31.98
2018-03-16T01:35:39.707Z,33.72
2018-03-16T01:38:07.221Z,29.25
2018-03-16T01:40:35.481Z,30.45
2018-03-16T01:43:02.970Z,30.37
2018-03-16T01:45:31.302Z,33.40
2018-03-16T01:47:58.823Z,30.92
2018-03-16T01:50:26.363Z,32.10
2018-03-16T01:53:06.537Z,31.02
2018-03-16T01:55:34.037Z,31.58
2018-03-16T01:58:01.912Z,29.73
2018-03-16T02:00:29.421Z,33.97
2018-03-16T02:02:57.693Z,28.83
2018-03-16T02:05:26.029Z,31.75
2018-03-16T02:07:53.569Z,33.72
2018-03-16T02:10:21.059Z,32.33
2018-03-16T02:12:48.531Z,34.50
2018-03-16T02:15:16.006Z,32.90
2018-03-16T02:17:44.449Z,33.05
2018-03-16T02:20:11.927Z,31.30
2018-03-16T02:22:39.412Z,32.42
2018-03-16T02:25:06.913Z,34.30
2018-03-16T02:27:34.433Z,35.15
2018-03-16T02:30:02.020Z,33.35
2018-03-16T02:32:29.585Z,33.70
2018-03-16T02:34:57.143Z,32.97
2018-03-16T02:37:24.684Z,33.35
2018-03-16T02:39:52.167Z,31.70
2018-03-16T02:42:19.757Z,33.33
2018-03-16T02:44:47.283Z,34.15
2018-03-16T02:47:14.755Z,34.92
2018-03-16T02:49:42.273Z,34.33
2018-03-16T02:52:09.780Z,33.35
2018-03-16T02:54:37.263Z,34.97
2018-03-16T02:57:04.749Z,37.25
2018-03-16T02:59:33.123Z,37.22
2018-03-16T03:02:00.613Z,33.95
2018-03-16T03:04:28.122Z,32.88
2018-03-16T03:06:55.619Z,35.08
2018-03-16T03:09:23.110Z,31.70
2018-03-16T03:11:50.592Z,35.90
2018-03-16T03:14:18.859Z,31.92
2018-03-16T03:16:46.435Z,33.60
2018-03-16T03:19:14.274Z,36.83
2018-03-16T03:21:41.790Z,34.10
2018-03-16T03:24:10.028Z,35.47
2018-03-16T03:26:39.020Z,33.58
2018-03-16T03:29:06.552Z,34.17
2018-03-16T03:31:34.032Z,34.03
2018-03-16T03:34:01.503Z,36.17
2018-03-16T03:36:29.045Z,35.75
2018-03-16T03:38:56.570Z,35.85
2018-03-16T03:41:24.118Z,35.05
2018-03-16T03:43:52.383Z,33.92
2018-03-16T03:46:20.656Z,33.35
2018-03-16T03:48:48.954Z,34.72
2018-03-16T03:51:17.212Z,35.40
2018-03-16T03:53:45.472Z,37.28
2018-03-16T03:56:13.008Z,34.22
2018-03-16T03:58:40.576Z,37.22
2018-03-16T04:01:08.056Z,37.13
2018-03-16T04:03:35.537Z,34.55
2018-03-16T04:06:03.781Z,39.33
2018-03-16T04:08:31.272Z,32.80
2018-03-16T04:10:58.782Z,37.58
2018-03-16T04:13:26.261Z,35.42
2018-03-16T04:15:53.786Z,36.40
2018-03-16T04:18:21.314Z,35.65
2018-03-16T04:20:49.619Z,38.10
2018-03-16T04:23:17.135Z,36.13
2018-03-16T04:25:44.629Z,36.05
2018-03-16T04:28:12.111Z,29.73
2018-03-16T04:30:39.675Z,37.03
2018-03-16T04:33:07.171Z,38.65
2018-03-16T04:35:34.665Z,34.80
2018-03-16T04:38:02.193Z,36.65
2018-03-16T04:40:29.691Z,36.95
2018-03-16T04:42:57.240Z,38.80
2018-03-16T04:45:25.537Z,36.63
2018-03-16T04:47:53.066Z,35.65
2018-03-16T04:50:21.297Z,34.55
2018-03-16T04:52:48.808Z,33.47
2018-03-16T04:55:16.283Z,38.38
2018-03-16T04:57:43.797Z,37.03
2018-03-16T05:00:11.295Z,35.70
2018-03-16T05:02:39.555Z,37.63
2018-03-16T05:05:07.831Z,36.65
2018-03-16T05:07:35.357Z,35.53
2018-03-16T05:10:02.841Z,37.53
2018-03-16T05:12:30.323Z,36.75
2018-03-16T05:14:57.790Z,35.33
2018-03-16T05:17:25.303Z,37.30
2018-03-16T05:19:52.785Z,35.80
2018-03-16T05:22:21.067Z,39.30
2018-03-16T05:24:48.647Z,36.60
2018-03-16T05:27:16.921Z,36.08
2018-03-16T05:29:44.406Z,35.70
2018-03-16T05:32:11.869Z,37.25
2018-03-16T05:34:39.333Z,37.72
2018-03-16T05:37:06.803Z,37.05
2018-03-16T05:39:34.268Z,35.42
2018-03-16T05:42:01.821Z,35.20
2018-03-16T05:44:29.290Z,35.97
2018-03-16T05:46:56.756Z,35.10
2018-03-16T05:49:24.244Z,33.75
2018-03-16T05:51:51.707Z,35.28
2018-03-16T05:54:19.169Z,34.50
2018-03-16T05:56:46.658Z,39.10
2018-03-16T05:59:14.131Z,35.33
2018-03-16T06:01:43.111Z,30.83
2018-03-16T06:04:10.593Z,35.00
2018-03-16T06:06:38.065Z,36.05
2018-03-16T06:09:06.322Z,31.58
2018-03-16T06:11:33.832Z,33.53
2018-03-16T06:14:01.345Z,32.85
2018-03-16T06:16:30.318Z,32.30
2018-03-16T06:18:57.806Z,32.88
2018-03-16T06:21:25.268Z,30.80
2018-03-16T06:23:52.733Z,32.55
2018-03-16T06:26:20.986Z,32.72
2018-03-16T06:28:48.458Z,32.88
2018-03-16T06:31:15.916Z,30.35
2018-03-16T06:33:43.372Z,31.25
2018-03-16T06:36:10.844Z,30.83
2018-03-16T06:38:39.080Z,31.37
2018-03-16T06:41:06.545Z,31.23
2018-03-16T06:43:34.009Z,34.38
2018-03-16T06:46:01.582Z,30.35
2018-03-16T06:48:29.049Z,26.80
2018-03-16T06:50:57.283Z,30.25
2018-03-16T06:53:24.779Z,26.80
2018-03-16T06:55:52.238Z,29.45
2018-03-16T06:58:19.698Z,27.50
2018-03-16T07:00:47.152Z,28.60
2018-03-16T07:03:14.712Z,28.40
2018-03-16T07:05:42.170Z,27.87
2018-03-16T07:08:09.637Z,27.20
2018-03-16T07:10:37.104Z,27.40
2018-03-16T07:13:05.340Z,24.85
2018-03-16T07:15:35.541Z,25.70
2018-03-16T07:18:03.038Z,25.45
2018-03-16T07:20:30.501Z,23.85
2018-03-16T07:22:57.966Z,25.02
2018-03-16T07:25:25.426Z,24.30
2018-03-16T07:27:52.983Z,25.50
2018-03-16T07:30:20.448Z,22.35
2018-03-16T07:32:48.686Z,21.25
2018-03-16T07:35:16.145Z,21.10
2018-03-16T07:37:43.618Z,21.67
2018-03-16T07:40:11.079Z,20.25
2018-03-16T07:42:38.541Z,23.15
2018-03-16T07:45:05.996Z,23.12
2018-03-16T07:47:33.487Z,26.73
2018-03-16T07:50:00.930Z,27.65
2018-03-16T07:52:28.407Z,20.83
2018-03-16T07:54:56.631Z,20.98
2018-03-16T07:57:24.107Z,24.20
2018-03-16T07:59:51.567Z,22.65
2018-03-16T08:02:19.045Z,24.85
2018-03-16T08:04:46.505Z,19.83
2018-03-16T08:07:14.035Z,19.05
2018-03-16T08:09:41.452Z,18.50
2018-03-16T08:12:08.921Z,21.17
2018-03-16T08:14:36.382Z,18.92
2018-03-16T08:17:03.848Z,18.55
2018-03-16T08:19:31.333Z,19.67
2018-03-16T08:21:58.889Z,19.10
2018-03-16T08:24:26.357Z,19.35
2018-03-16T08:26:53.922Z,18.85
2018-03-16T08:29:21.534Z,19.92
2018-03-16T08:31:48.985Z,18.83
2018-03-16T08:34:16.470Z,17.62
2018-03-16T08:36:43.929Z,18.75
2018-03-16T08:39:11.449Z,19.55
2018-03-16T08:41:38.865Z,18.98
2018-03-16T08:44:06.345Z,17.70
2018-03-16T08:46:34.635Z,18.98
2018-03-16T08:49:02.874Z,17.77
2018-03-16T08:51:30.602Z,16.85
2018-03-16T08:53:58.077Z,17.80
2018-03-16T08:56:25.546Z,19.35
2018-03-16T08:58:53.015Z,18.27
2018-03-16T09:01:20.495Z,16.10
2018-03-16T09:03:47.966Z,20.62
2018-03-16T09:06:15.428Z,20.08
2018-03-16T09:08:43.690Z,21.37
2018-03-16T09:11:11.146Z,20.37
2018-03-16T09:13:38.604Z,19.02
2018-03-16T09:16:06.073Z,20.55
2018-03-16T09:18:33.537Z,19.55
2018-03-16T09:21:01.775Z,20.70
2018-03-16T09:23:29.233Z,21.00
2018-03-16T09:25:56.701Z,20.55
2018-03-16T09:28:24.161Z,21.45
2018-03-16T09:30:51.633Z,20.77
2018-03-16T09:33:19.105Z,23.20
2018-03-16T09:35:47.346Z,21.65
2018-03-16T09:38:14.818Z,22.80
2018-03-16T09:40:42.281Z,20.45
2018-03-16T09:43:11.253Z,20.83
2018-03-16T09:45:38.718Z,20.67
2018-03-16T09:48:06.190Z,21.50
2018-03-16T09:50:33.713Z,20.92
2018-03-16T09:53:01.320Z,21.40
2018-03-16T09:55:46.593Z,21.58
2018-03-16T09:58:14.057Z,22.40
2018-03-16T10:00:41.542Z,20.12
2018-03-16T10:03:09.770Z,20.60
2018-03-16T10:05:37.226Z,20.15
2018-03-16T10:08:04.688Z,18.90
2018-03-16T10:10:32.155Z,20.48
2018-03-16T10:12:59.640Z,20.12
2018-03-16T10:15:27.874Z,18.87
2018-03-16T10:17:55.354Z,18.58
2018-03-16T10:20:22.818Z,17.83
2018-03-16T10:22:51.049Z,19.55
2018-03-16T10:25:18.511Z,17.50
2018-03-16T10:27:45.985Z,18.90
2018-03-16T10:30:13.468Z,17.85
2018-03-16T10:32:40.941Z,18.30
2018-03-16T10:35:09.165Z,18.02
2018-03-16T10:37:36.625Z,18.77
2018-03-16T10:40:04.087Z,19.50
2018-03-16T10:42:31.545Z,19.80
2018-03-16T10:44:59.025Z,19.42
2018-03-16T10:47:26.488Z,18.70
2018-03-16T10:49:53.974Z,21.02
2018-03-16T10:52:22.207Z,18.90
2018-03-16T10:54:49.673Z,18.27
2018-03-16T10:57:17.151Z,20.62
2018-03-16T10:59:44.614Z,20.08
2018-03-16T11:02:17.974Z,20.15
2018-03-16T11:04:45.464Z,19.50
2018-03-16T11:07:19.637Z,19.75
2018-03-16T11:09:47.116Z,19.70
2018-03-16T11:12:14.584Z,21.75
2018-03-16T11:14:42.053Z,20.12
2018-03-16T11:17:09.519Z,19.60
2018-03-16T11:19:36.988Z,19.70
2018-03-16T11:22:05.221Z,18.15
2018-03-16T11:24:32.693Z,20.30
2018-03-16T11:27:00.313Z,17.98
2018-03-16T11:29:27.787Z,18.73
2018-03-16T11:31:55.259Z,19.48
2018-03-16T11:34:22.722Z,17.62
2018-03-16T11:36:50.184Z,16.65
2018-03-16T11:39:17.649Z,16.55
2018-03-16T11:41:45.141Z,17.00
2018-03-16T11:44:12.653Z,17.90
2018-03-16T11:46:40.145Z,17.65
2018-03-16T11:49:07.765Z,17.85
2018-03-16T11:51:35.281Z,18.30
2018-03-16T11:54:03.543Z,18.10
2018-03-16T11:56:31.044Z,16.95
2018-03-16T11:58:58.583Z,15.85
2018-03-16T12:01:26.827Z,17.62
2018-03-16T12:03:54.306Z,15.40
2018-03-16T12:06:22.645Z,15.80
2018-03-16T12:08:50.108Z,15.93
2018-03-16T12:11:17.650Z,16.00
2018-03-16T12:13:45.117Z,17.33
2018-03-16T12:16:12.582Z,16.23
2018-03-16T12:18:40.043Z,15.20
2018-03-16T12:21:07.520Z,16.08
2018-03-16T12:23:34.975Z,15.10
2018-03-16T12:26:02.454Z,16.75
2018-03-16T12:28:49.341Z,14.93
2018-03-16T12:30:58.169Z,14.70
2018-03-16T12:33:25.625Z,14.52
2018-03-16T12:35:53.367Z,14.38
2018-03-16T12:38:20.817Z,14.07
2018-03-16T12:40:48.312Z,15.07
2018-03-16T12:43:15.757Z,13.80
2018-03-16T12:45:43.236Z,13.10
2018-03-16T12:48:10.707Z,12.82
2018-03-16T12:50:38.957Z,12.43
2018-03-16T12:53:06.413Z,12.45
2018-03-16T12:55:33.918Z,13.45
2018-03-16T12:58:01.400Z,13.65
2018-03-16T13:00:28.961Z,12.10
2018-03-16T13:02:56.470Z,13.38
2018-03-16T13:05:23.947Z,14.38
2018-03-16T13:07:52.225Z,12.35
2018-03-16T13:10:19.669Z,12.13
2018-03-16T13:12:47.928Z,11.95
2018-03-16T13:15:15.390Z,12.77
2018-03-16T13:17:42.864Z,14.07
2018-03-16T13:20:11.097Z,11.93
2018-03-16T13:22:38.573Z,12.55
2018-03-16T13:25:06.047Z,12.93
2018-03-16T13:27:33.538Z,14.50
2018-03-16T13:30:01.767Z,14.45
2018-03-16T13:32:29.241Z,13.45
2018-03-16T13:34:56.755Z,13.30
2018-03-16T13:37:24.271Z,13.40
2018-03-16T13:39:52.522Z,12.95
2018-03-16T13:42:20.004Z,11.68
2018-03-16T13:44:47.470Z,14.30
2018-03-16T13:47:15.720Z,15.20
2018-03-16T13:49:43.409Z,14.48
2018-03-16T13:52:10.967Z,13.23
2018-03-16T13:54:38.413Z,14.40
2018-03-16T13:57:05.945Z,14.15
2018-03-16T13:59:33.463Z,14.60
2018-03-16T14:02:01.710Z,13.52
2018-03-16T14:04:29.168Z,13.57
2018-03-16T14:06:56.671Z,14.05
2018-03-16T14:09:24.135Z,13.07
2018-03-16T14:11:51.615Z,14.75
2018-03-16T14:14:19.126Z,12.45
2018-03-16T14:16:47.362Z,13.77
2018-03-16T14:19:14.837Z,12.90
2018-03-16T14:21:42.456Z,14.27
2018-03-16T14:24:10.078Z,14.82
2018-03-16T14:26:38.325Z,12.48
2018-03-16T14:29:05.872Z,13.50
2018-03-16T14:31:33.413Z,15.45
2018-03-16T14:34:00.897Z,15.55
2018-03-16T14:36:28.413Z,14.25
2018-03-16T14:38:55.928Z,15.77
2018-03-16T14:41:23.384Z,13.68
2018-03-16T14:43:50.890Z,14.07
2018-03-16T14:46:18.361Z,14.15
2018-03-16T14:48:45.849Z,13.68
2018-03-16T14:51:13.352Z,14.07
2018-03-16T14:53:41.665Z,14.65
2018-03-16T14:56:09.126Z,13.65
2018-03-16T14:58:36.602Z,14.85
2018-03-16T15:01:04.089Z,14.63
2018-03-16T15:03:31.618Z,13.77
2018-03-16T15:05:59.068Z,13.57
2018-03-16T15:08:26.607Z,13.80
2018-03-16T15:10:54.125Z,13.85
2018-03-16T15:13:21.628Z,14.98
2018-03-16T15:15:49.103Z,14.27
2018-03-16T15:18:17.226Z,13.93
2018-03-16T15:20:44.737Z,13.55
2018-03-16T15:23:12.235Z,13.15
2018-03-16T15:25:39.726Z,14.35
2018-03-16T15:28:07.197Z,13.32
2018-03-16T15:30:34.682Z,13.52
2018-03-16T15:33:02.150Z,12.80
2018-03-16T15:35:29.725Z,15.07
2018-03-16T15:37:57.198Z,14.63
2018-03-16T15:40:25.445Z,13.27
2018-03-16T15:42:52.914Z,14.00
2018-03-16T15:45:20.424Z,12.95
2018-03-16T15:47:47.953Z,12.77
2018-03-16T15:50:15.417Z,11.65
2018-03-16T15:52:43.660Z,11.45
2018-03-16T15:55:11.132Z,12.50
2018-03-16T15:57:38.619Z,12.48
2018-03-16T16:00:06.850Z,11.43
2018-03-16T16:02:34.385Z,10.90
2018-03-16T16:05:01.901Z,10.30
2018-03-16T16:07:30.277Z,11.05
2018-03-16T16:09:57.846Z,9.95
2018-03-16T16:12:26.162Z,8.48
2018-03-16T16:14:53.618Z,10.10
2018-03-16T16:17:21.113Z,8.68
2018-03-16T16:19:48.718Z,9.90
2018-03-16T16:22:16.946Z,8.55
2018-03-16T16:24:44.429Z,8.90
2018-03-16T16:27:11.981Z,8.30
2018-03-16T16:29:39.513Z,8.35
2018-03-16T16:32:06.995Z,8.48
2018-03-16T16:34:34.502Z,8.77
2018-03-16T16:37:01.991Z,8.25
2018-03-16T16:39:29.475Z,7.80
2018-03-16T16:41:56.954Z,8.25
2018-03-16T16:44:25.195Z,8.02
2018-03-16T16:46:52.645Z,7.35
2018-03-16T16:49:20.884Z,8.18
2018-03-16T16:51:49.135Z,8.07
2018-03-16T16:54:17.479Z,7.22
2018-03-16T16:56:44.964Z,7.43
2018-03-16T16:59:12.421Z,7.55
2018-03-16T17:01:40.034Z,7.15
2018-03-16T17:04:07.491Z,7.12
2018-03-16T17:06:34.948Z,6.37
2018-03-16T17:09:03.182Z,7.25
2018-03-16T17:11:32.258Z,6.87
2018-03-16T17:13:59.830Z,6.00
2018-03-16T17:16:27.347Z,6.18
2018-03-16T17:18:55.020Z,5.80
2018-03-16T17:21:22.498Z,5.95
2018-03-16T17:23:49.966Z,6.05
2018-03-16T17:26:17.449Z,6.87
2018-03-16T17:28:45.709Z,5.95
2018-03-16T17:31:13.199Z,6.47
2018-03-16T17:33:41.453Z,6.45
2018-03-16T17:36:08.943Z,5.55
2018-03-16T17:38:36.446Z,5.97
2018-03-16T17:41:03.943Z,6.60
2018-03-16T17:43:32.213Z,6.15
2018-03-16T17:46:00.473Z,5.97
2018-03-16T17:48:27.998Z,6.18
2018-03-16T17:50:55.476Z,6.37
2018-03-16T17:53:23.076Z,6.95
2018-03-16T17:55:50.638Z,6.43
2018-03-16T17:58:18.869Z,7.55
2018-03-16T18:00:46.385Z,6.60
2018-03-16T18:03:14.613Z,6.45
2018-03-16T18:05:42.093Z,6.15
2018-03-16T18:08:09.569Z,6.62
2018-03-16T18:10:37.825Z,7.18
2018-03-16T18:13:05.297Z,6.95
2018-03-16T18:15:33.533Z,6.87
2018-03-16T18:20:54.719Z,6.55
2018-03-16T18:23:22.956Z,6.10
2018-03-16T18:25:50.457Z,5.57
2018-03-16T18:28:18.690Z,6.20
2018-03-16T18:30:46.141Z,6.00
2018-03-16T18:33:13.606Z,6.60
2018-03-16T18:35:41.121Z,5.35
2018-03-16T18:38:09.334Z,6.35
2018-03-16T18:40:36.791Z,5.68
2018-03-16T18:43:04.251Z,5.70
2018-03-16T18:45:31.726Z,5.45
2018-03-16T18:48:00.689Z,5.45
2018-03-16T18:50:28.294Z,5.30
2018-03-16T18:52:55.814Z,5.80
2018-03-16T18:55:23.261Z,5.65
2018-03-16T18:57:50.734Z,4.65
2018-03-16T19:00:18.238Z,5.53
2018-03-16T19:02:45.898Z,6.53
2018-03-16T19:05:13.422Z,5.47
2018-03-16T19:07:40.900Z,7.18
2018-03-16T19:10:08.366Z,5.65
2018-03-16T19:12:35.857Z,6.37
2018-03-16T19:15:04.097Z,6.12
2018-03-16T19:17:31.561Z,5.32
2018-03-16T19:19:59.059Z,5.90
2018-03-16T19:22:29.335Z,5.18
2018-03-16T19:24:56.802Z,7.40
2018-03-16T19:27:24.278Z,5.87
2018-03-16T19:29:51.740Z,6.53
2018-03-16T19:32:19.962Z,6.05
2018-03-16T19:34:47.443Z,6.00
2018-03-16T19:37:15.043Z,6.90
2018-03-16T19:39:43.290Z,6.30
2018-03-16T19:42:10.845Z,5.97
2018-03-16T19:44:38.322Z,5.12
2018-03-16T21:09:03.706Z,6.00
2018-03-16T21:11:31.995Z,5.30
2018-03-16T21:14:00.244Z,6.50
2018-03-16T21:16:27.717Z,5.28
2018-03-16T21:18:55.177Z,6.15
2018-03-16T21:21:22.659Z,4.93
2018-03-16T21:23:50.890Z,5.70
2018-03-16T21:26:18.358Z,5.80
2018-03-16T21:28:45.943Z,5.12
2018-03-16T21:31:14.169Z,5.15
2018-03-16T21:33:41.643Z,4.30
2018-03-16T21:36:09.124Z,5.25
2018-03-16T21:38:36.607Z,5.10
2018-03-16T21:41:04.856Z,5.12
2018-03-16T21:43:32.325Z,5.57
2018-03-16T21:45:59.790Z,4.53
2018-03-16T21:48:28.058Z,5.00
2018-03-16T21:50:55.535Z,5.47
2018-03-16T21:53:23.808Z,5.22
2018-03-16T21:55:52.108Z,5.85
2018-03-16T21:58:19.603Z,4.10
2018-03-16T22:00:47.123Z,4.75
2018-03-16T22:03:14.617Z,4.57
2018-03-16T22:05:42.099Z,4.85
2018-03-16T22:08:09.726Z,4.53
2018-03-16T22:10:37.430Z,4.28
2018-03-16T22:13:04.910Z,4.45
2018-03-16T22:15:34.337Z,5.00
2018-03-16T22:18:01.968Z,4.68
2018-03-16T22:20:30.216Z,3.80
2018-03-16T22:22:57.669Z,4.50
2018-03-16T22:25:25.138Z,4.20
2018-03-16T22:27:52.590Z,5.85
2018-03-16T22:30:20.061Z,4.65
2018-03-16T22:32:47.658Z,5.03
2018-03-16T22:35:15.204Z,4.40
2018-03-16T22:37:42.707Z,4.45
2018-03-16T22:40:10.184Z,4.95
2018-03-16T22:42:37.756Z,4.20
2018-03-16T22:45:05.213Z,5.05
2018-03-16T22:47:32.693Z,4.05
2018-03-16T22:50:00.971Z,4.60
2018-03-16T22:52:28.430Z,4.37
2018-03-16T22:54:56.728Z,5.47
2018-03-16T22:57:25.002Z,4.20
2018-03-16T22:59:53.243Z,4.45
2018-03-16T23:02:20.715Z,4.22
2018-03-16T23:04:48.223Z,4.18
2018-03-16T23:07:15.686Z,4.75
2018-03-16T23:09:43.144Z,3.70
2018-03-16T23:12:10.602Z,4.15
2018-03-16T23:14:38.082Z,4.03
2018-03-16T23:17:05.556Z,4.80
2018-03-16T23:19:33.032Z,4.12
2018-03-16T23:22:01.269Z,4.35
2018-03-16T23:24:28.803Z,4.00
2018-03-16T23:26:56.310Z,4.32
2018-03-16T23:29:23.791Z,4.55
2018-03-16T23:31:51.323Z,5.03
2018-03-16T23:34:18.800Z,5.03
2018-03-16T23:36:47.058Z,4.18
2018-03-16T23:39:14.529Z,4.25
2018-03-16T23:41:42.000Z,5.18
2018-03-16T23:44:09.782Z,5.10
2018-03-16T23:46:37.262Z,4.37
2018-03-16T23:49:04.742Z,3.97
2018-03-16T23:51:32.201Z,4.43
2018-03-16T23:53:59.671Z,4.70
2018-03-16T23:56:27.130Z,4.40
2018-03-16T23:58:54.605Z,4.12
